TFM - Tactical Decision Aid (Experimental) INFO Settings

ID: Runway Winds: METAR Board: Map:

Kclt - Charlotte-Douglas Intl

Updated at: 0400 UTC 31 Oct 2014
Latest TAF at: 2335 UTC 30 Oct 2014

TAF Board

Time0352Z31/04Z31/05Z31/06Z31/07Z31/08Z31/09Z31/10Z31/11Z31/12Z31/13Z31/14Z31/15Z31/16Z
TypeOBSPRVLPRVLPRVLPRVLPRVLPRVLPRVLPRVLPRVLPRVLPRVLPRVLPRVL
VIS10>6>6>6>6>6>6>6>6>6>6>6>6>6
CIG------------------250250250250250
CoverCLRSCTSCTSCTSCTSCTSCTSCTSCTBKNBKNBKNBKNBKN
FltCat--VFRVFRVFRVFRVFRVFRVFRVFRVFRVFRVFRVFRVFR
WX----------------------------
WDir7040404040404040402020202020
WSpd43333333344444
WGst----------------------------
TAF
KCLT 302335Z 3100/3124 04003KT P6SM SCT250
  FM311200 02004KT P6SM FEW050 BKN250
  FM311800 24005KT P6SM SCT050 BKN130


METAR
KCLT 310352Z 07004KT 10SM CLR 12/01 A2998 RMK AO2 SLP148 T01170011
KCLT 310252Z 03003KT 10SM CLR 12/01 A2999 RMK AO2 SLP150 T01170011 55000

TAF/METAR Board Legend

Hazard VFR MVFR IFR LIFR
Visibility (sm) >5 3≤X≤5 1≤X<3 <1
Ceiling (100 ft) >30 10≤X≤30 5≤X<10 <5
Wind Speed (kt) <10 10≤X<20 20≤X<30 ≥30
Wind Gust (kt) <15 15≤X<25 25≤X<35 ≥35
Weather No Wx Reported VCTS,-TS,-FZRA TS,FZRA +TS,+FZRA




Page loaded:  04:00 UTC  |   09:00 PM Pacific  |   10:00 PM Mountain  |   11:00 PM Central  |   12:00 AM Eastern

 

ADVISORIES

FORECASTS

FORECASTS

OBSERVATIONS

USER TOOLS

ABOUT US